Bookmark and Share
Track history (hours):
 

Amarant

Last reported at 2014-Apr-16 22:27 UTC. Time now 2014-Apr-17 09:46 UTC.
Position N 43°42' E 007°17'.

Length 14 m.

Type: Sailing vessel. MMSI: 261015190.

NotesDate/timePositionNaut miles runAvg speedWind from/ knotsBaromVisibWave heightAir tempDewpointWater temp
2014-Apr-16 22:27N 43°42' E 007°17'0 0.0
2014-Apr-16 20:03N 43°42' E 007°17'0 0.0
2014-Apr-16 19:33N 43°42' E 007°17'0 0.0
2014-Apr-16 13:16N 43°42' E 007°17'1 0.1
2014-Apr-16 05:33N 43°41' E 007°18'83 5.7
2014-Apr-15 15:03N 44°25' E 008°55'0 0.0
2014-Apr-15 14:33N 44°25' E 008°55'0 0.0
2014-Apr-15 12:34N 44°25' E 008°55'0 0.0
2014-Apr-15 10:34N 44°25' E 008°55'0 0.0
2014-Apr-15 09:34N 44°25' E 008°55'5 0.5
2014-Apr-14 23:33N 44°20' E 008°55'6 5.9
2014-Apr-14 22:34N 44°14' E 008°56'6 6.0
2014-Apr-14 21:33N 44°08' E 008°59'6 6.1
2014-Apr-14 20:32N 44°03' E 009°03'6 6.1
2014-Apr-14 19:34N 43°57' E 009°06'6 6.3
2014-Apr-14 18:33N 43°51' E 009°09'6 6.3
2014-Apr-14 17:33N 43°45' E 009°11'6 6.1
2014-Apr-14 16:32N 43°39' E 009°14'6 6.0
2014-Apr-14 15:33N 43°34' E 009°16'  

Dump ship's entire track history

sailing weather and tide predictions

Amarant — SPG3207 — position and weather